sensor_id;sensor_type;location;lat;lon;timestamp;P1;durP1;ratioP1;P2;durP2;ratioP2
70985;SDS011;58645;43.068;25.610;2023-08-07T00:00:39;7.55;;;5.28;;
70985;SDS011;58645;43.068;25.610;2023-08-07T00:03:05;7.50;;;5.35;;
70985;SDS011;58645;43.068;25.610;2023-08-07T00:05:31;7.35;;;5.00;;
70985;SDS011;58645;43.068;25.610;2023-08-07T00:07:56;9.55;;;5.22;;
70985;SDS011;58645;43.068;25.610;2023-08-07T00:10:22;8.60;;;5.43;;
70985;SDS011;58645;43.068;25.610;2023-08-07T00:12:49;8.00;;;5.38;;
70985;SDS011;58645;43.068;25.610;2023-08-07T00:15:15;7.68;;;5.20;;
70985;SDS011;58645;43.068;25.610;2023-08-07T00:17:41;10.52;;;5.72;;
70985;SDS011;58645;43.068;25.610;2023-08-07T00:20:07;9.80;;;5.65;;
70985;SDS011;58645;43.068;25.610;2023-08-07T00:24:59;7.00;;;4.93;;
70985;SDS011;58645;43.068;25.610;2023-08-07T00:27:25;7.82;;;4.25;;
70985;SDS011;58645;43.068;25.610;2023-08-07T00:29:50;11.35;;;5.30;;
70985;SDS011;58645;43.068;25.610;2023-08-07T00:32:16;6.95;;;4.53;;
70985;SDS011;58645;43.068;25.610;2023-08-07T00:34:42;7.05;;;5.07;;
70985;SDS011;58645;43.068;25.610;2023-08-07T00:37:08;7.18;;;5.07;;
70985;SDS011;58645;43.068;25.610;2023-08-07T00:39:34;6.60;;;3.75;;
70985;SDS011;58645;43.068;25.610;2023-08-07T00:41:59;6.25;;;3.95;;
70985;SDS011;58645;43.068;25.610;2023-08-07T00:44:25;6.22;;;3.90;;
70985;SDS011;58645;43.068;25.610;2023-08-07T00:46:51;5.53;;;4.03;;
70985;SDS011;58645;43.068;25.610;2023-08-07T00:49:17;6.38;;;4.07;;
70985;SDS011;58645;43.068;25.610;2023-08-07T00:51:44;6.10;;;3.92;;
70985;SDS011;58645;43.068;25.610;2023-08-07T00:54:10;5.40;;;3.75;;
70985;SDS011;58645;43.068;25.610;2023-08-07T00:56:39;5.88;;;3.83;;
70985;SDS011;58645;43.068;25.610;2023-08-07T00:59:05;16.92;;;3.78;;
70985;SDS011;58645;43.068;25.610;2023-08-07T01:01:31;7.15;;;4.00;;
70985;SDS011;58645;43.068;25.610;2023-08-07T01:03:58;6.70;;;4.00;;
70985;SDS011;58645;43.068;25.610;2023-08-07T01:06:23;6.00;;;3.78;;
70985;SDS011;58645;43.068;25.610;2023-08-07T01:08:49;6.25;;;3.70;;
70985;SDS011;58645;43.068;25.610;2023-08-07T01:11:22;5.85;;;3.70;;
70985;SDS011;58645;43.068;25.610;2023-08-07T01:19:01;5.85;;;3.78;;
70985;SDS011;58645;43.068;25.610;2023-08-07T01:21:29;6.53;;;4.13;;
70985;SDS011;58645;43.068;25.610;2023-08-07T01:23:57;6.28;;;3.58;;
70985;SDS011;58645;43.068;25.610;2023-08-07T01:26:22;5.47;;;3.60;;
70985;SDS011;58645;43.068;25.610;2023-08-07T01:29:11;5.85;;;3.78;;
70985;SDS011;58645;43.068;25.610;2023-08-07T01:31:45;5.38;;;3.58;;
70985;SDS011;58645;43.068;25.610;2023-08-07T01:34:14;5.63;;;4.13;;
70985;SDS011;58645;43.068;25.610;2023-08-07T01:36:43;6.45;;;3.60;;
70985;SDS011;58645;43.068;25.610;2023-08-07T01:39:13;6.90;;;3.95;;
70985;SDS011;58645;43.068;25.610;2023-08-07T01:41:40;5.70;;;3.83;;
70985;SDS011;58645;43.068;25.610;2023-08-07T01:44:06;5.13;;;3.53;;
70985;SDS011;58645;43.068;25.610;2023-08-07T01:46:31;5.53;;;3.47;;
70985;SDS011;58645;43.068;25.610;2023-08-07T01:48:57;6.13;;;3.42;;
70985;SDS011;58645;43.068;25.610;2023-08-07T01:51:23;4.50;;;3.42;;
70985;SDS011;58645;43.068;25.610;2023-08-07T01:53:48;5.80;;;3.13;;
70985;SDS011;58645;43.068;25.610;2023-08-07T01:56:14;4.88;;;3.35;;
70985;SDS011;58645;43.068;25.610;2023-08-07T01:58:40;4.10;;;2.80;;
70985;SDS011;58645;43.068;25.610;2023-08-07T02:01:05;5.28;;;2.97;;
70985;SDS011;58645;43.068;25.610;2023-08-07T02:03:31;5.13;;;3.15;;
70985;SDS011;58645;43.068;25.610;2023-08-07T02:05:57;5.05;;;3.30;;
70985;SDS011;58645;43.068;25.610;2023-08-07T02:08:22;4.88;;;3.47;;
70985;SDS011;58645;43.068;25.610;2023-08-07T02:10:48;5.50;;;2.95;;
70985;SDS011;58645;43.068;25.610;2023-08-07T02:13:14;4.05;;;2.85;;
70985;SDS011;58645;43.068;25.610;2023-08-07T02:15:39;5.38;;;3.22;;
70985;SDS011;58645;43.068;25.610;2023-08-07T02:18:06;4.35;;;3.13;;
70985;SDS011;58645;43.068;25.610;2023-08-07T02:20:31;4.90;;;3.30;;
70985;SDS011;58645;43.068;25.610;2023-08-07T02:22:57;6.28;;;3.03;;
70985;SDS011;58645;43.068;25.610;2023-08-07T02:25:23;5.05;;;2.92;;
70985;SDS011;58645;43.068;25.610;2023-08-07T02:27:48;4.32;;;3.25;;
70985;SDS011;58645;43.068;25.610;2023-08-07T02:30:14;4.55;;;2.90;;
70985;SDS011;58645;43.068;25.610;2023-08-07T02:32:40;4.15;;;3.20;;
70985;SDS011;58645;43.068;25.610;2023-08-07T02:35:08;4.90;;;3.20;;
70985;SDS011;58645;43.068;25.610;2023-08-07T02:37:33;4.45;;;3.30;;
70985;SDS011;58645;43.068;25.610;2023-08-07T02:39:59;5.65;;;3.28;;
70985;SDS011;58645;43.068;25.610;2023-08-07T02:42:25;5.30;;;2.95;;
70985;SDS011;58645;43.068;25.610;2023-08-07T02:44:50;4.65;;;2.97;;
70985;SDS011;58645;43.068;25.610;2023-08-07T02:47:16;4.75;;;2.95;;
70985;SDS011;58645;43.068;25.610;2023-08-07T02:49:42;4.80;;;2.92;;
70985;SDS011;58645;43.068;25.610;2023-08-07T02:52:07;4.10;;;2.83;;
70985;SDS011;58645;43.068;25.610;2023-08-07T02:54:33;4.97;;;3.38;;
70985;SDS011;58645;43.068;25.610;2023-08-07T02:56:59;4.80;;;3.25;;
70985;SDS011;58645;43.068;25.610;2023-08-07T02:59:24;5.68;;;3.50;;
70985;SDS011;58645;43.068;25.610;2023-08-07T03:01:50;5.00;;;3.08;;
70985;SDS011;58645;43.068;25.610;2023-08-07T03:04:16;5.47;;;3.40;;
70985;SDS011;58645;43.068;25.610;2023-08-07T03:06:42;5.32;;;3.60;;
70985;SDS011;58645;43.068;25.610;2023-08-07T03:09:07;4.95;;;3.13;;
70985;SDS011;58645;43.068;25.610;2023-08-07T03:11:33;6.30;;;3.90;;
70985;SDS011;58645;43.068;25.610;2023-08-07T03:13:59;4.45;;;3.22;;
70985;SDS011;58645;43.068;25.610;2023-08-07T03:16:24;6.75;;;3.97;;
70985;SDS011;58645;43.068;25.610;2023-08-07T03:18:50;5.25;;;3.67;;
70985;SDS011;58645;43.068;25.610;2023-08-07T03:21:16;5.30;;;3.40;;
70985;SDS011;58645;43.068;25.610;2023-08-07T03:23:42;4.90;;;3.28;;
70985;SDS011;58645;43.068;25.610;2023-08-07T03:26:08;5.32;;;3.15;;
70985;SDS011;58645;43.068;25.610;2023-08-07T03:28:36;5.30;;;3.05;;
70985;SDS011;58645;43.068;25.610;2023-08-07T03:31:02;5.00;;;3.40;;
70985;SDS011;58645;43.068;25.610;2023-08-07T03:33:28;4.88;;;3.42;;
70985;SDS011;58645;43.068;25.610;2023-08-07T03:35:54;4.32;;;2.97;;
70985;SDS011;58645;43.068;25.610;2023-08-07T03:38:20;5.03;;;3.30;;
70985;SDS011;58645;43.068;25.610;2023-08-07T03:40:45;5.32;;;3.13;;
70985;SDS011;58645;43.068;25.610;2023-08-07T03:43:11;4.18;;;2.80;;
70985;SDS011;58645;43.068;25.610;2023-08-07T03:45:37;5.88;;;3.38;;
70985;SDS011;58645;43.068;25.610;2023-08-07T03:48:04;4.95;;;3.35;;
70985;SDS011;58645;43.068;25.610;2023-08-07T03:50:29;6.15;;;3.30;;
70985;SDS011;58645;43.068;25.610;2023-08-07T03:52:55;5.03;;;3.58;;
70985;SDS011;58645;43.068;25.610;2023-08-07T03:55:21;5.75;;;3.70;;
70985;SDS011;58645;43.068;25.610;2023-08-07T03:57:47;5.25;;;3.53;;
70985;SDS011;58645;43.068;25.610;2023-08-07T04:00:13;5.25;;;3.33;;
70985;SDS011;58645;43.068;25.610;2023-08-07T04:02:39;4.63;;;3.15;;
70985;SDS011;58645;43.068;25.610;2023-08-07T04:05:05;5.32;;;3.08;;
70985;SDS011;58645;43.068;25.610;2023-08-07T04:07:31;3.72;;;2.58;;
70985;SDS011;58645;43.068;25.610;2023-08-07T04:12:23;5.70;;;2.90;;
70985;SDS011;58645;43.068;25.610;2023-08-07T04:14:49;4.70;;;3.00;;
70985;SDS011;58645;43.068;25.610;2023-08-07T04:17:15;6.03;;;3.45;;
70985;SDS011;58645;43.068;25.610;2023-08-07T04:19:40;3.60;;;2.63;;
70985;SDS011;58645;43.068;25.610;2023-08-07T04:22:06;3.95;;;2.80;;
70985;SDS011;58645;43.068;25.610;2023-08-07T04:24:32;3.90;;;3.05;;
70985;SDS011;58645;43.068;25.610;2023-08-07T04:26:57;4.55;;;3.03;;
70985;SDS011;58645;43.068;25.610;2023-08-07T04:29:24;4.05;;;2.97;;
70985;SDS011;58645;43.068;25.610;2023-08-07T04:31:49;4.50;;;2.72;;
70985;SDS011;58645;43.068;25.610;2023-08-07T04:34:15;3.72;;;2.70;;
70985;SDS011;58645;43.068;25.610;2023-08-07T04:36:41;4.07;;;3.05;;
70985;SDS011;58645;43.068;25.610;2023-08-07T04:39:06;4.57;;;2.90;;
70985;SDS011;58645;43.068;25.610;2023-08-07T04:41:32;4.82;;;2.70;;
70985;SDS011;58645;43.068;25.610;2023-08-07T04:43:58;3.90;;;2.55;;
70985;SDS011;58645;43.068;25.610;2023-08-07T04:46:23;7.05;;;3.30;;
70985;SDS011;58645;43.068;25.610;2023-08-07T04:48:49;5.57;;;2.78;;
70985;SDS011;58645;43.068;25.610;2023-08-07T04:51:15;3.67;;;2.80;;
70985;SDS011;58645;43.068;25.610;2023-08-07T04:53:41;3.92;;;2.63;;
70985;SDS011;58645;43.068;25.610;2023-08-07T04:56:07;6.78;;;3.13;;
70985;SDS011;58645;43.068;25.610;2023-08-07T04:58:32;4.28;;;2.58;;
70985;SDS011;58645;43.068;25.610;2023-08-07T05:00:58;4.68;;;2.55;;
70985;SDS011;58645;43.068;25.610;2023-08-07T05:03:24;3.70;;;2.63;;
70985;SDS011;58645;43.068;25.610;2023-08-07T05:05:57;3.35;;;2.63;;
70985;SDS011;58645;43.068;25.610;2023-08-07T05:08:24;3.90;;;3.05;;
70985;SDS011;58645;43.068;25.610;2023-08-07T05:10:49;5.78;;;2.97;;
70985;SDS011;58645;43.068;25.610;2023-08-07T05:13:15;4.00;;;2.75;;
70985;SDS011;58645;43.068;25.610;2023-08-07T05:15:41;20.10;;;2.80;;
70985;SDS011;58645;43.068;25.610;2023-08-07T05:18:07;4.55;;;2.80;;
70985;SDS011;58645;43.068;25.610;2023-08-07T05:20:33;3.92;;;2.22;;
70985;SDS011;58645;43.068;25.610;2023-08-07T05:22:58;4.20;;;2.55;;
70985;SDS011;58645;43.068;25.610;2023-08-07T05:25:24;4.72;;;2.72;;
70985;SDS011;58645;43.068;25.610;2023-08-07T05:27:50;3.67;;;2.72;;
70985;SDS011;58645;43.068;25.610;2023-08-07T05:30:16;4.70;;;2.70;;
70985;SDS011;58645;43.068;25.610;2023-08-07T05:32:42;5.50;;;2.72;;
70985;SDS011;58645;43.068;25.610;2023-08-07T05:35:08;3.35;;;2.78;;
70985;SDS011;58645;43.068;25.610;2023-08-07T05:37:34;5.05;;;3.00;;
70985;SDS011;58645;43.068;25.610;2023-08-07T05:42:25;3.50;;;2.38;;
70985;SDS011;58645;43.068;25.610;2023-08-07T05:44:51;3.20;;;2.25;;
70985;SDS011;58645;43.068;25.610;2023-08-07T05:47:17;3.92;;;2.58;;
70985;SDS011;58645;43.068;25.610;2023-08-07T05:49:42;3.47;;;2.60;;
70985;SDS011;58645;43.068;25.610;2023-08-07T05:52:08;3.35;;;2.33;;
70985;SDS011;58645;43.068;25.610;2023-08-07T05:54:34;3.60;;;2.40;;
70985;SDS011;58645;43.068;25.610;2023-08-07T05:57:00;3.70;;;2.40;;
70985;SDS011;58645;43.068;25.610;2023-08-07T05:59:26;2.95;;;2.33;;
70985;SDS011;58645;43.068;25.610;2023-08-07T06:01:52;3.45;;;2.33;;
70985;SDS011;58645;43.068;25.610;2023-08-07T06:04:18;2.90;;;1.92;;
70985;SDS011;58645;43.068;25.610;2023-08-07T06:06:45;3.20;;;1.83;;
70985;SDS011;58645;43.068;25.610;2023-08-07T06:11:37;3.40;;;2.60;;
70985;SDS011;58645;43.068;25.610;2023-08-07T06:14:03;2.78;;;2.03;;
70985;SDS011;58645;43.068;25.610;2023-08-07T06:16:28;4.10;;;2.42;;
70985;SDS011;58645;43.068;25.610;2023-08-07T06:18:54;3.88;;;2.13;;
70985;SDS011;58645;43.068;25.610;2023-08-07T06:21:20;3.40;;;2.08;;
70985;SDS011;58645;43.068;25.610;2023-08-07T06:23:46;2.35;;;1.92;;
70985;SDS011;58645;43.068;25.610;2023-08-07T06:26:12;2.50;;;1.83;;
70985;SDS011;58645;43.068;25.610;2023-08-07T06:28:38;1.92;;;1.73;;
70985;SDS011;58645;43.068;25.610;2023-08-07T06:31:04;2.70;;;1.85;;
70985;SDS011;58645;43.068;25.610;2023-08-07T06:33:34;2.55;;;1.95;;
70985;SDS011;58645;43.068;25.610;2023-08-07T06:36:00;2.30;;;1.67;;
70985;SDS011;58645;43.068;25.610;2023-08-07T06:38:29;2.30;;;1.90;;
70985;SDS011;58645;43.068;25.610;2023-08-07T06:40:55;2.35;;;1.88;;
70985;SDS011;58645;43.068;25.610;2023-08-07T06:43:21;3.08;;;1.42;;
70985;SDS011;58645;43.068;25.610;2023-08-07T06:45:51;1.83;;;1.60;;
70985;SDS011;58645;43.068;25.610;2023-08-07T06:48:19;3.65;;;1.80;;
70985;SDS011;58645;43.068;25.610;2023-08-07T06:50:46;2.35;;;1.90;;
70985;SDS011;58645;43.068;25.610;2023-08-07T06:53:15;2.85;;;1.63;;
70985;SDS011;58645;43.068;25.610;2023-08-07T06:55:42;1.88;;;1.60;;
70985;SDS011;58645;43.068;25.610;2023-08-07T06:58:08;2.50;;;1.48;;
70985;SDS011;58645;43.068;25.610;2023-08-07T07:00:34;2.60;;;1.63;;
70985;SDS011;58645;43.068;25.610;2023-08-07T07:03:01;2.13;;;1.92;;
70985;SDS011;58645;43.068;25.610;2023-08-07T07:05:27;1.80;;;1.42;;
70985;SDS011;58645;43.068;25.610;2023-08-07T07:07:53;2.10;;;1.60;;
70985;SDS011;58645;43.068;25.610;2023-08-07T07:10:19;2.35;;;1.40;;
70985;SDS011;58645;43.068;25.610;2023-08-07T07:12:45;2.47;;;1.77;;
70985;SDS011;58645;43.068;25.610;2023-08-07T07:15:11;1.98;;;1.23;;
70985;SDS011;58645;43.068;25.610;2023-08-07T07:17:37;3.03;;;1.42;;
70985;SDS011;58645;43.068;25.610;2023-08-07T07:20:03;2.00;;;1.60;;
70985;SDS011;58645;43.068;25.610;2023-08-07T07:22:29;2.30;;;1.42;;
70985;SDS011;58645;43.068;25.610;2023-08-07T07:24:54;1.80;;;1.33;;
70985;SDS011;58645;43.068;25.610;2023-08-07T07:27:20;1.85;;;1.48;;
70985;SDS011;58645;43.068;25.610;2023-08-07T07:29:47;2.88;;;1.38;;
70985;SDS011;58645;43.068;25.610;2023-08-07T07:32:13;2.88;;;1.63;;
70985;SDS011;58645;43.068;25.610;2023-08-07T07:34:39;2.58;;;1.55;;
70985;SDS011;58645;43.068;25.610;2023-08-07T07:37:05;2.60;;;1.38;;
70985;SDS011;58645;43.068;25.610;2023-08-07T07:39:31;1.63;;;1.50;;
70985;SDS011;58645;43.068;25.610;2023-08-07T07:41:56;1.60;;;1.30;;
70985;SDS011;58645;43.068;25.610;2023-08-07T07:44:22;2.45;;;1.38;;
70985;SDS011;58645;43.068;25.610;2023-08-07T07:46:48;2.40;;;1.58;;
70985;SDS011;58645;43.068;25.610;2023-08-07T07:49:14;1.50;;;1.30;;
70985;SDS011;58645;43.068;25.610;2023-08-07T07:51:40;1.90;;;1.30;;
70985;SDS011;58645;43.068;25.610;2023-08-07T07:54:06;1.58;;;1.08;;
70985;SDS011;58645;43.068;25.610;2023-08-07T07:56:31;1.95;;;1.27;;
70985;SDS011;58645;43.068;25.610;2023-08-07T07:58:57;1.92;;;1.45;;
70985;SDS011;58645;43.068;25.610;2023-08-07T08:01:23;1.98;;;1.30;;
70985;SDS011;58645;43.068;25.610;2023-08-07T08:03:48;1.45;;;1.13;;
70985;SDS011;58645;43.068;25.610;2023-08-07T08:06:14;2.67;;;1.23;;
70985;SDS011;58645;43.068;25.610;2023-08-07T08:08:40;1.40;;;1.15;;
70985;SDS011;58645;43.068;25.610;2023-08-07T08:11:07;2.60;;;1.33;;
70985;SDS011;58645;43.068;25.610;2023-08-07T08:13:33;1.70;;;1.10;;
70985;SDS011;58645;43.068;25.610;2023-08-07T08:16:03;1.42;;;1.20;;
70985;SDS011;58645;43.068;25.610;2023-08-07T08:18:29;2.30;;;1.10;;
70985;SDS011;58645;43.068;25.610;2023-08-07T08:20:55;2.38;;;1.25;;
70985;SDS011;58645;43.068;25.610;2023-08-07T08:23:21;3.83;;;1.30;;
70985;SDS011;58645;43.068;25.610;2023-08-07T08:25:47;1.23;;;0.82;;
70985;SDS011;58645;43.068;25.610;2023-08-07T08:28:13;1.08;;;0.75;;
70985;SDS011;58645;43.068;25.610;2023-08-07T08:30:39;2.58;;;0.90;;
70985;SDS011;58645;43.068;25.610;2023-08-07T08:33:05;1.20;;;0.90;;
70985;SDS011;58645;43.068;25.610;2023-08-07T08:35:31;2.25;;;1.33;;
70985;SDS011;58645;43.068;25.610;2023-08-07T08:37:57;3.55;;;1.20;;
70985;SDS011;58645;43.068;25.610;2023-08-07T08:40:23;1.55;;;0.95;;
70985;SDS011;58645;43.068;25.610;2023-08-07T08:42:49;2.05;;;0.82;;
70985;SDS011;58645;43.068;25.610;2023-08-07T08:45:18;2.00;;;0.85;;
70985;SDS011;58645;43.068;25.610;2023-08-07T08:47:45;1.58;;;0.75;;
70985;SDS011;58645;43.068;25.610;2023-08-07T08:50:14;1.80;;;0.80;;
70985;SDS011;58645;43.068;25.610;2023-08-07T08:52:41;1.33;;;0.75;;
70985;SDS011;58645;43.068;25.610;2023-08-07T08:55:09;0.75;;;0.63;;
70985;SDS011;58645;43.068;25.610;2023-08-07T08:57:36;1.35;;;0.93;;
70985;SDS011;58645;43.068;25.610;2023-08-07T09:00:03;1.30;;;1.00;;
70985;SDS011;58645;43.068;25.610;2023-08-07T09:02:41;1.45;;;0.68;;
70985;SDS011;58645;43.068;25.610;2023-08-07T09:05:08;1.60;;;0.60;;
70985;SDS011;58645;43.068;25.610;2023-08-07T09:07:34;1.73;;;0.60;;
70985;SDS011;58645;43.068;25.610;2023-08-07T09:10:02;2.15;;;0.70;;
70985;SDS011;58645;43.068;25.610;2023-08-07T09:12:29;1.65;;;0.95;;
70985;SDS011;58645;43.068;25.610;2023-08-07T09:14:57;1.65;;;0.82;;
70985;SDS011;58645;43.068;25.610;2023-08-07T09:17:24;1.08;;;0.73;;
70985;SDS011;58645;43.068;25.610;2023-08-07T09:19:52;1.25;;;0.68;;
70985;SDS011;58645;43.068;25.610;2023-08-07T09:22:19;0.90;;;0.57;;
70985;SDS011;58645;43.068;25.610;2023-08-07T09:24:45;1.33;;;0.82;;
70985;SDS011;58645;43.068;25.610;2023-08-07T09:27:11;0.93;;;0.70;;
70985;SDS011;58645;43.068;25.610;2023-08-07T09:29:40;1.00;;;0.73;;
70985;SDS011;58645;43.068;25.610;2023-08-07T09:32:11;1.25;;;0.82;;
70985;SDS011;58645;43.068;25.610;2023-08-07T09:34:41;1.35;;;0.88;;
70985;SDS011;58645;43.068;25.610;2023-08-07T09:37:10;1.15;;;0.63;;
70985;SDS011;58645;43.068;25.610;2023-08-07T09:39:37;2.63;;;0.68;;
70985;SDS011;58645;43.068;25.610;2023-08-07T09:42:03;1.40;;;0.43;;
70985;SDS011;58645;43.068;25.610;2023-08-07T09:44:38;1.08;;;0.60;;
70985;SDS011;58645;43.068;25.610;2023-08-07T09:47:22;1.42;;;0.70;;
70985;SDS011;58645;43.068;25.610;2023-08-07T09:49:48;1.40;;;0.80;;
70985;SDS011;58645;43.068;25.610;2023-08-07T09:52:19;0.93;;;0.60;;
70985;SDS011;58645;43.068;25.610;2023-08-07T09:54:44;1.90;;;0.60;;
70985;SDS011;58645;43.068;25.610;2023-08-07T09:57:10;1.02;;;0.77;;
70985;SDS011;58645;43.068;25.610;2023-08-07T09:59:36;1.17;;;0.80;;
70985;SDS011;58645;43.068;25.610;2023-08-07T10:02:02;1.92;;;0.75;;
70985;SDS011;58645;43.068;25.610;2023-08-07T10:04:29;1.85;;;0.60;;
70985;SDS011;58645;43.068;25.610;2023-08-07T10:06:56;1.13;;;0.77;;
70985;SDS011;58645;43.068;25.610;2023-08-07T10:09:23;1.10;;;0.75;;
70985;SDS011;58645;43.068;25.610;2023-08-07T10:11:49;1.20;;;0.93;;
70985;SDS011;58645;43.068;25.610;2023-08-07T10:14:15;0.88;;;0.60;;
70985;SDS011;58645;43.068;25.610;2023-08-07T10:16:43;1.30;;;0.70;;
70985;SDS011;58645;43.068;25.610;2023-08-07T10:19:11;1.80;;;0.70;;
70985;SDS011;58645;43.068;25.610;2023-08-07T10:21:40;1.02;;;0.85;;
70985;SDS011;58645;43.068;25.610;2023-08-07T10:24:08;1.00;;;0.90;;
70985;SDS011;58645;43.068;25.610;2023-08-07T10:26:37;1.52;;;0.60;;
70985;SDS011;58645;43.068;25.610;2023-08-07T10:29:07;1.08;;;0.63;;
70985;SDS011;58645;43.068;25.610;2023-08-07T10:31:36;1.65;;;0.75;;
70985;SDS011;58645;43.068;25.610;2023-08-07T10:34:05;1.13;;;0.73;;
70985;SDS011;58645;43.068;25.610;2023-08-07T10:36:34;1.00;;;0.60;;
70985;SDS011;58645;43.068;25.610;2023-08-07T10:39:08;1.98;;;0.60;;
70985;SDS011;58645;43.068;25.610;2023-08-07T10:41:42;1.33;;;0.60;;
70985;SDS011;58645;43.068;25.610;2023-08-07T10:46:49;1.27;;;0.73;;
70985;SDS011;58645;43.068;25.610;2023-08-07T10:52:08;1.08;;;0.65;;
70985;SDS011;58645;43.068;25.610;2023-08-07T10:54:37;1.08;;;0.63;;
70985;SDS011;58645;43.068;25.610;2023-08-07T10:57:09;0.95;;;0.68;;
70985;SDS011;58645;43.068;25.610;2023-08-07T10:59:37;1.40;;;0.50;;
70985;SDS011;58645;43.068;25.610;2023-08-07T11:02:03;1.45;;;0.70;;
70985;SDS011;58645;43.068;25.610;2023-08-07T11:04:36;0.82;;;0.57;;
70985;SDS011;58645;43.068;25.610;2023-08-07T11:07:02;2.55;;;0.80;;
70985;SDS011;58645;43.068;25.610;2023-08-07T11:09:28;1.02;;;0.75;;
70985;SDS011;58645;43.068;25.610;2023-08-07T11:11:54;2.38;;;0.65;;
70985;SDS011;58645;43.068;25.610;2023-08-07T11:14:20;0.80;;;0.52;;
70985;SDS011;58645;43.068;25.610;2023-08-07T11:16:46;0.65;;;0.52;;
70985;SDS011;58645;43.068;25.610;2023-08-07T11:19:13;1.27;;;0.57;;
70985;SDS011;58645;43.068;25.610;2023-08-07T11:21:40;1.00;;;0.60;;
70985;SDS011;58645;43.068;25.610;2023-08-07T11:24:07;1.20;;;0.80;;
70985;SDS011;58645;43.068;25.610;2023-08-07T11:26:33;1.35;;;0.60;;
70985;SDS011;58645;43.068;25.610;2023-08-07T11:28:59;2.42;;;0.80;;
70985;SDS011;58645;43.068;25.610;2023-08-07T11:31:25;1.00;;;0.70;;
70985;SDS011;58645;43.068;25.610;2023-08-07T11:33:54;0.65;;;0.50;;
70985;SDS011;58645;43.068;25.610;2023-08-07T11:36:23;0.85;;;0.63;;
70985;SDS011;58645;43.068;25.610;2023-08-07T11:38:49;0.90;;;0.70;;
70985;SDS011;58645;43.068;25.610;2023-08-07T11:41:15;1.52;;;0.95;;
70985;SDS011;58645;43.068;25.610;2023-08-07T11:43:42;0.90;;;0.70;;
70985;SDS011;58645;43.068;25.610;2023-08-07T11:46:09;0.80;;;0.60;;
70985;SDS011;58645;43.068;25.610;2023-08-07T11:48:37;0.75;;;0.73;;
70985;SDS011;58645;43.068;25.610;2023-08-07T11:51:03;0.75;;;0.50;;
70985;SDS011;58645;43.068;25.610;2023-08-07T11:53:34;0.70;;;0.57;;
70985;SDS011;58645;43.068;25.610;2023-08-07T11:56:08;2.95;;;0.60;;
70985;SDS011;58645;43.068;25.610;2023-08-07T11:58:36;0.80;;;0.60;;
70985;SDS011;58645;43.068;25.610;2023-08-07T12:01:08;1.05;;;0.63;;
70985;SDS011;58645;43.068;25.610;2023-08-07T12:03:36;2.40;;;0.70;;
70985;SDS011;58645;43.068;25.610;2023-08-07T12:06:06;1.80;;;0.70;;
70985;SDS011;58645;43.068;25.610;2023-08-07T12:08:37;0.70;;;0.50;;
70985;SDS011;58645;43.068;25.610;2023-08-07T12:11:04;1.17;;;0.52;;
70985;SDS011;58645;43.068;25.610;2023-08-07T12:13:41;0.70;;;0.60;;
70985;SDS011;58645;43.068;25.610;2023-08-07T12:16:07;1.23;;;0.65;;
70985;SDS011;58645;43.068;25.610;2023-08-07T12:18:34;1.20;;;0.70;;
70985;SDS011;58645;43.068;25.610;2023-08-07T12:21:03;0.75;;;0.50;;
70985;SDS011;58645;43.068;25.610;2023-08-07T12:23:34;1.35;;;0.70;;
70985;SDS011;58645;43.068;25.610;2023-08-07T12:26:03;1.27;;;0.60;;
70985;SDS011;58645;43.068;25.610;2023-08-07T12:28:32;1.13;;;0.73;;
70985;SDS011;58645;43.068;25.610;2023-08-07T12:30:59;1.33;;;0.50;;
70985;SDS011;58645;43.068;25.610;2023-08-07T12:33:24;3.05;;;0.95;;
70985;SDS011;58645;43.068;25.610;2023-08-07T12:35:50;0.70;;;0.60;;
70985;SDS011;58645;43.068;25.610;2023-08-07T12:38:18;0.98;;;0.60;;
70985;SDS011;58645;43.068;25.610;2023-08-07T12:40:44;0.95;;;0.70;;
70985;SDS011;58645;43.068;25.610;2023-08-07T12:43:13;1.13;;;0.70;;
70985;SDS011;58645;43.068;25.610;2023-08-07T12:45:39;0.70;;;0.43;;
70985;SDS011;58645;43.068;25.610;2023-08-07T12:48:05;1.45;;;0.80;;
70985;SDS011;58645;43.068;25.610;2023-08-07T12:50:32;0.90;;;0.60;;
70985;SDS011;58645;43.068;25.610;2023-08-07T12:52:58;0.73;;;0.60;;
70985;SDS011;58645;43.068;25.610;2023-08-07T12:55:24;0.90;;;0.70;;
70985;SDS011;58645;43.068;25.610;2023-08-07T12:57:52;1.80;;;0.60;;
70985;SDS011;58645;43.068;25.610;2023-08-07T13:00:18;0.65;;;0.55;;
70985;SDS011;58645;43.068;25.610;2023-08-07T13:02:45;0.90;;;0.60;;
70985;SDS011;58645;43.068;25.610;2023-08-07T13:05:12;0.90;;;0.52;;
70985;SDS011;58645;43.068;25.610;2023-08-07T13:07:41;1.02;;;0.63;;
70985;SDS011;58645;43.068;25.610;2023-08-07T13:10:07;0.63;;;0.32;;
70985;SDS011;58645;43.068;25.610;2023-08-07T13:12:35;0.93;;;0.45;;
70985;SDS011;58645;43.068;25.610;2023-08-07T13:15:02;0.88;;;0.43;;
70985;SDS011;58645;43.068;25.610;2023-08-07T13:17:30;0.90;;;0.50;;
70985;SDS011;58645;43.068;25.610;2023-08-07T13:19:55;0.73;;;0.52;;
70985;SDS011;58645;43.068;25.610;2023-08-07T13:22:21;0.98;;;0.60;;
70985;SDS011;58645;43.068;25.610;2023-08-07T13:24:47;0.80;;;0.40;;
70985;SDS011;58645;43.068;25.610;2023-08-07T13:27:13;0.95;;;0.50;;
70985;SDS011;58645;43.068;25.610;2023-08-07T13:29:38;0.63;;;0.55;;
70985;SDS011;58645;43.068;25.610;2023-08-07T13:32:04;1.20;;;0.47;;
70985;SDS011;58645;43.068;25.610;2023-08-07T13:34:37;1.67;;;0.50;;
70985;SDS011;58645;43.068;25.610;2023-08-07T13:37:04;2.30;;;0.65;;
70985;SDS011;58645;43.068;25.610;2023-08-07T13:39:30;1.10;;;0.60;;
70985;SDS011;58645;43.068;25.610;2023-08-07T13:41:56;1.85;;;0.40;;
70985;SDS011;58645;43.068;25.610;2023-08-07T13:44:22;1.05;;;0.47;;
70985;SDS011;58645;43.068;25.610;2023-08-07T13:46:48;1.77;;;0.47;;
70985;SDS011;58645;43.068;25.610;2023-08-07T13:49:14;0.50;;;0.32;;
70985;SDS011;58645;43.068;25.610;2023-08-07T13:51:44;4.07;;;0.50;;
70985;SDS011;58645;43.068;25.610;2023-08-07T13:54:10;0.73;;;0.43;;
70985;SDS011;58645;43.068;25.610;2023-08-07T13:56:35;0.50;;;0.32;;
70985;SDS011;58645;43.068;25.610;2023-08-07T13:59:01;0.95;;;0.50;;
70985;SDS011;58645;43.068;25.610;2023-08-07T14:01:27;1.30;;;0.73;;
70985;SDS011;58645;43.068;25.610;2023-08-07T14:03:53;2.17;;;0.60;;
70985;SDS011;58645;43.068;25.610;2023-08-07T14:06:19;1.35;;;0.60;;
70985;SDS011;58645;43.068;25.610;2023-08-07T14:08:45;1.08;;;0.52;;
70985;SDS011;58645;43.068;25.610;2023-08-07T14:11:11;0.63;;;0.45;;
70985;SDS011;58645;43.068;25.610;2023-08-07T14:13:39;1.15;;;0.45;;
70985;SDS011;58645;43.068;25.610;2023-08-07T14:16:06;1.20;;;0.60;;
70985;SDS011;58645;43.068;25.610;2023-08-07T14:18:32;2.35;;;0.70;;
70985;SDS011;58645;43.068;25.610;2023-08-07T14:20:57;1.42;;;0.70;;
70985;SDS011;58645;43.068;25.610;2023-08-07T14:23:23;0.85;;;0.32;;
70985;SDS011;58645;43.068;25.610;2023-08-07T14:25:49;0.98;;;0.55;;
70985;SDS011;58645;43.068;25.610;2023-08-07T14:28:16;0.70;;;0.40;;
70985;SDS011;58645;43.068;25.610;2023-08-07T14:30:42;2.10;;;0.55;;
70985;SDS011;58645;43.068;25.610;2023-08-07T14:33:08;0.60;;;0.40;;
70985;SDS011;58645;43.068;25.610;2023-08-07T14:35:34;0.88;;;0.60;;
70985;SDS011;58645;43.068;25.610;2023-08-07T14:37:59;0.70;;;0.50;;
70985;SDS011;58645;43.068;25.610;2023-08-07T14:40:25;0.95;;;0.70;;
70985;SDS011;58645;43.068;25.610;2023-08-07T14:42:53;1.90;;;0.52;;
70985;SDS011;58645;43.068;25.610;2023-08-07T14:45:21;1.05;;;0.40;;
70985;SDS011;58645;43.068;25.610;2023-08-07T14:47:49;1.20;;;0.55;;
70985;SDS011;58645;43.068;25.610;2023-08-07T14:50:15;0.63;;;0.43;;